createdAt,value
2023-02-13T00:00:59.228Z,13.60
2023-02-13T00:03:01.162Z,13.80
2023-02-13T00:05:08.662Z,14.07
2023-02-13T00:07:13.252Z,12.60
2023-02-13T00:11:18.720Z,13.45
2023-02-13T00:13:26.202Z,12.93
2023-02-13T00:15:30.325Z,13.27
2023-02-13T00:17:34.626Z,12.45
2023-02-13T00:19:36.224Z,13.70
2023-02-13T00:21:37.722Z,13.65
2023-02-13T00:23:39.344Z,13.70
2023-02-13T00:25:43.972Z,12.80
2023-02-13T00:27:48.555Z,13.30
2023-02-13T00:29:56.131Z,13.90
2023-02-13T00:34:05.902Z,13.40
2023-02-13T00:36:08.492Z,15.07
2023-02-13T00:38:10.014Z,13.63
2023-02-13T00:40:11.824Z,15.98
2023-02-13T00:42:31.992Z,13.30
2023-02-13T00:44:36.556Z,13.68
2023-02-13T00:46:41.038Z,13.82
2023-02-13T00:48:43.028Z,13.98
2023-02-13T00:50:47.456Z,14.45
2023-02-13T00:52:51.998Z,13.93
2023-02-13T00:54:53.574Z,14.85
2023-02-13T00:56:58.198Z,14.25
2023-02-13T00:58:59.706Z,13.27
2023-02-13T01:01:01.213Z,13.80
2023-02-13T01:05:07.310Z,13.75
2023-02-13T01:07:11.672Z,15.45
2023-02-13T01:09:13.237Z,15.05
2023-02-13T01:13:23.678Z,13.77
2023-02-13T01:15:28.512Z,13.65
2023-02-13T01:17:30.026Z,14.25
2023-02-13T01:19:34.440Z,15.52
2023-02-13T01:23:40.307Z,14.30
2023-02-13T01:25:42.297Z,14.98
2023-02-13T01:27:43.930Z,15.52
2023-02-13T01:29:45.591Z,15.30
2023-02-13T01:31:50.212Z,15.65
2023-02-13T01:33:58.018Z,16.27
2023-02-13T01:36:00.357Z,14.40
2023-02-13T01:38:01.953Z,15.68
2023-02-13T01:40:07.687Z,16.67
2023-02-13T01:42:29.397Z,15.05
2023-02-13T01:44:49.082Z,15.80
2023-02-13T01:46:56.653Z,15.07
2023-02-13T01:49:07.709Z,14.50
2023-02-13T01:51:14.807Z,15.32
2023-02-13T01:55:30.056Z,16.77
2023-02-13T01:57:45.661Z,17.30
2023-02-13T02:00:01.936Z,14.38
2023-02-13T02:02:14.620Z,14.40
2023-02-13T02:04:27.702Z,14.93
2023-02-13T02:06:37.721Z,15.02
2023-02-13T02:08:50.117Z,14.40
2023-02-13T02:11:00.406Z,13.25
2023-02-13T02:13:22.605Z,14.18
2023-02-13T02:15:39.632Z,14.77
2023-02-13T02:17:51.238Z,14.88
2023-02-13T02:20:14.615Z,15.48
2023-02-13T02:22:32.546Z,15.00
2023-02-13T02:24:55.785Z,16.67
2023-02-13T02:27:17.196Z,16.40
2023-02-13T02:29:47.411Z,17.40
2023-02-13T02:32:10.018Z,17.67
2023-02-13T02:34:22.706Z,16.38
2023-02-13T02:36:33.653Z,17.50
2023-02-13T02:38:56.661Z,17.10
2023-02-13T02:41:04.005Z,17.73
2023-02-13T02:43:08.565Z,17.30
2023-02-13T02:45:34.699Z,19.85
2023-02-13T02:48:02.600Z,19.05
2023-02-13T02:50:23.847Z,19.33
2023-02-13T02:52:48.456Z,19.13
2023-02-13T02:55:08.851Z,18.90
2023-02-13T02:57:13.621Z,19.35
2023-02-13T02:59:36.400Z,18.27
2023-02-13T03:01:57.816Z,20.58
2023-02-13T03:04:43.682Z,19.52
2023-02-13T03:06:56.172Z,19.70
2023-02-13T03:09:22.474Z,19.65
2023-02-13T03:11:45.944Z,20.48
2023-02-13T03:13:50.401Z,20.92
2023-02-13T03:16:13.321Z,19.98
2023-02-13T03:18:33.518Z,19.95
2023-02-13T03:21:10.213Z,21.02
2023-02-13T03:23:16.167Z,21.67
2023-02-13T03:25:30.344Z,19.90
2023-02-13T03:28:14.177Z,21.45
2023-02-13T03:30:20.641Z,20.65
2023-02-13T03:32:40.717Z,21.65
2023-02-13T03:35:04.536Z,21.67
2023-02-13T03:37:30.028Z,21.60
2023-02-13T03:39:39.084Z,20.95
2023-02-13T03:42:04.287Z,20.63
2023-02-13T03:44:05.956Z,21.52
2023-02-13T03:46:07.917Z,22.50
2023-02-13T03:48:30.143Z,26.38
2023-02-13T03:50:50.170Z,23.55
2023-02-13T03:53:11.926Z,24.05
2023-02-13T03:55:34.115Z,21.58
2023-02-13T03:57:55.576Z,22.67
2023-02-13T03:59:57.369Z,21.38
2023-02-13T04:02:10.540Z,22.00
2023-02-13T04:04:17.536Z,22.17
2023-02-13T04:06:24.113Z,23.10
2023-02-13T04:08:31.702Z,22.35
2023-02-13T04:10:43.893Z,23.00
2023-02-13T04:12:55.996Z,23.10
2023-02-13T04:14:57.501Z,21.83
2023-02-13T04:19:08.248Z,23.02
2023-02-13T04:21:15.637Z,22.52
2023-02-13T04:23:20.045Z,22.58
2023-02-13T04:25:24.479Z,23.80
2023-02-13T04:27:29.338Z,22.30
2023-02-13T04:29:30.990Z,21.23
2023-02-13T04:31:32.781Z,24.77
2023-02-13T04:33:34.440Z,24.30
2023-02-13T04:35:41.987Z,22.83
2023-02-13T04:37:43.518Z,24.02
2023-02-13T04:39:45.148Z,21.45
2023-02-13T04:41:49.378Z,23.10
2023-02-13T04:43:52.433Z,23.45
2023-02-13T04:45:56.846Z,23.50
2023-02-13T04:48:01.316Z,24.90
2023-02-13T04:50:21.893Z,25.48
2023-02-13T04:52:23.494Z,25.17
2023-02-13T04:54:27.840Z,27.70
2023-02-13T04:56:32.142Z,23.52
2023-02-13T04:58:53.235Z,23.48
2023-02-13T05:00:58.878Z,23.33
2023-02-13T05:03:11.030Z,24.98
2023-02-13T05:05:12.762Z,23.67
2023-02-13T05:07:17.323Z,25.17
2023-02-13T05:09:18.923Z,24.27
2023-02-13T05:11:20.523Z,25.80
2023-02-13T05:13:22.276Z,27.00
2023-02-13T05:15:24.024Z,27.48
2023-02-13T05:17:28.658Z,25.55
2023-02-13T05:19:36.160Z,25.52
2023-02-13T05:21:59.141Z,24.13
2023-02-13T05:24:03.454Z,26.02
2023-02-13T05:26:07.871Z,25.92
2023-02-13T05:28:29.749Z,26.80
2023-02-13T05:30:33.819Z,24.65
2023-02-13T05:32:38.401Z,26.13
2023-02-13T05:34:58.423Z,24.85
2023-02-13T05:37:02.924Z,26.88
2023-02-13T05:41:13.564Z,27.02
2023-02-13T05:43:15.178Z,27.48
2023-02-13T05:45:22.833Z,26.08
2023-02-13T05:47:24.370Z,25.63
2023-02-13T05:49:25.956Z,26.92
2023-02-13T05:51:30.582Z,28.33
2023-02-13T05:53:35.291Z,29.65
2023-02-13T05:55:39.990Z,28.13
2023-02-13T05:57:41.723Z,27.75
2023-02-13T05:59:43.274Z,27.20
2023-02-13T06:01:44.786Z,26.75
2023-02-13T06:05:50.442Z,28.63
2023-02-13T06:07:58.069Z,28.25
2023-02-13T06:10:02.812Z,26.83
2023-02-13T06:12:04.431Z,26.83
2023-02-13T06:14:06.076Z,26.20
2023-02-13T06:16:26.338Z,29.25
2023-02-13T06:18:31.085Z,26.83
2023-02-13T06:20:32.758Z,28.65
2023-02-13T06:22:34.290Z,27.27
2023-02-13T06:26:58.876Z,27.95
2023-02-13T06:29:00.434Z,26.25
2023-02-13T06:33:06.158Z,29.50
2023-02-13T06:35:08.195Z,26.98
2023-02-13T06:37:12.432Z,27.52
2023-02-13T06:39:13.958Z,25.80
2023-02-13T06:43:22.449Z,28.38
2023-02-13T06:45:42.645Z,28.77
2023-02-13T06:50:07.470Z,29.70
2023-02-13T06:52:11.592Z,28.13
2023-02-13T06:54:13.248Z,28.35
2023-02-13T06:56:14.722Z,29.15
2023-02-13T06:58:16.211Z,29.30
2023-02-13T07:00:18.920Z,30.38
2023-02-13T07:02:20.608Z,27.63
2023-02-13T07:04:22.181Z,28.02
2023-02-13T07:06:42.486Z,29.90
2023-02-13T07:08:46.837Z,27.80
2023-02-13T07:10:51.289Z,29.65
2023-02-13T07:15:08.265Z,26.65
2023-02-13T07:17:12.639Z,28.92
2023-02-13T07:19:17.254Z,29.67
2023-02-13T07:21:21.560Z,29.90
2023-02-13T07:23:25.882Z,30.80
2023-02-13T07:25:28.158Z,29.08
2023-02-13T07:27:29.919Z,29.60
2023-02-13T07:29:37.205Z,27.65
2023-02-13T07:31:57.148Z,30.40
2023-02-13T07:33:58.761Z,32.65
2023-02-13T07:36:18.799Z,31.73
2023-02-13T07:38:20.383Z,30.65
2023-02-13T07:40:22.287Z,33.38
2023-02-13T07:42:33.155Z,30.27
2023-02-13T07:44:34.621Z,32.08
2023-02-13T07:46:39.237Z,32.05
2023-02-13T07:48:43.673Z,33.40
2023-02-13T07:50:48.137Z,30.70
2023-02-13T07:52:56.277Z,31.10
2023-02-13T07:55:00.660Z,29.45
2023-02-13T07:57:02.451Z,30.70
2023-02-13T07:59:04.516Z,30.77
2023-02-13T08:01:14.000Z,29.58
2023-02-13T08:03:34.236Z,30.13
2023-02-13T08:05:42.026Z,29.50
2023-02-13T08:07:51.190Z,27.67
2023-02-13T08:10:25.181Z,32.25
2023-02-13T08:12:40.905Z,30.67
2023-02-13T08:14:50.252Z,29.75
2023-02-13T08:17:06.090Z,29.75
2023-02-13T08:19:17.914Z,30.42
2023-02-13T08:21:37.454Z,28.50
2023-02-13T08:23:49.124Z,28.90
2023-02-13T08:26:03.855Z,28.83
2023-02-13T08:28:12.534Z,28.95
2023-02-13T08:30:23.392Z,30.17
2023-02-13T08:32:53.166Z,31.08
2023-02-13T08:35:11.418Z,29.83
2023-02-13T08:37:24.344Z,30.27
2023-02-13T08:39:38.375Z,32.78
2023-02-13T08:41:42.456Z,30.88
2023-02-13T08:43:43.990Z,30.58
2023-02-13T08:45:45.757Z,30.85
2023-02-13T08:47:50.365Z,32.70
2023-02-13T08:49:51.836Z,31.02
2023-02-13T08:51:56.006Z,31.38
2023-02-13T08:53:57.579Z,30.20
2023-02-13T08:56:02.469Z,29.75
2023-02-13T08:58:04.796Z,29.60
2023-02-13T09:00:12.404Z,30.60
2023-02-13T09:02:16.485Z,30.48
2023-02-13T09:04:20.936Z,30.35
2023-02-13T09:06:23.016Z,30.48
2023-02-13T09:08:30.930Z,30.27
2023-02-13T09:10:33.008Z,29.60
2023-02-13T09:12:34.519Z,28.17
2023-02-13T09:14:39.664Z,29.88
2023-02-13T09:16:41.181Z,30.88
2023-02-13T09:18:42.795Z,31.30
2023-02-13T09:20:50.292Z,28.23
2023-02-13T09:22:51.875Z,27.92
2023-02-13T09:24:53.447Z,28.25
2023-02-13T09:26:56.695Z,28.55
2023-02-13T09:29:01.998Z,25.77
2023-02-13T09:31:24.211Z,29.05
2023-02-13T09:33:26.266Z,28.13
2023-02-13T09:35:30.726Z,29.45
2023-02-13T09:37:35.312Z,29.58
2023-02-13T09:39:36.910Z,29.42
2023-02-13T09:41:42.926Z,27.30
2023-02-13T09:44:33.781Z,27.13
2023-02-13T09:46:37.150Z,27.55
2023-02-13T09:48:40.768Z,28.45
2023-02-13T09:50:48.350Z,28.27
2023-02-13T09:54:57.294Z,27.85
2023-02-13T09:57:05.091Z,28.55
2023-02-13T09:59:15.917Z,30.17
2023-02-13T10:01:22.481Z,27.77
2023-02-13T10:03:43.198Z,27.92
2023-02-13T10:05:44.660Z,27.02
2023-02-13T10:08:23.722Z,26.88
2023-02-13T10:10:37.473Z,27.58
2023-02-13T10:12:41.822Z,28.95
2023-02-13T10:14:54.685Z,26.42
2023-02-13T10:17:17.873Z,26.40
2023-02-13T10:19:19.333Z,27.45
2023-02-13T10:23:32.225Z,27.58
2023-02-13T10:25:56.019Z,26.17
2023-02-13T10:28:00.803Z,26.02
2023-02-13T10:30:05.886Z,25.55
2023-02-13T10:32:10.755Z,27.23
2023-02-13T10:34:14.606Z,26.25
2023-02-13T10:36:18.260Z,29.35
2023-02-13T10:38:21.420Z,27.25
2023-02-13T10:40:32.017Z,28.17
2023-02-13T10:43:18.714Z,27.48
2023-02-13T10:45:42.078Z,26.63
2023-02-13T10:47:44.334Z,27.40
2023-02-13T10:50:05.252Z,29.08
2023-02-13T10:52:35.484Z,28.40
2023-02-13T10:54:46.952Z,26.65
2023-02-13T10:56:51.340Z,27.45
2023-02-13T10:58:58.578Z,27.83
2023-02-13T11:01:22.865Z,26.83
2023-02-13T11:03:28.347Z,27.15
2023-02-13T11:05:39.596Z,25.50
2023-02-13T11:07:44.829Z,26.83
2023-02-13T11:09:49.513Z,27.17
2023-02-13T11:11:55.107Z,25.23
2023-02-13T11:14:18.999Z,25.42
2023-02-13T11:16:22.059Z,26.25
2023-02-13T11:18:28.747Z,25.17
2023-02-13T11:20:35.681Z,26.00
2023-02-13T11:22:43.778Z,25.60
2023-02-13T11:24:57.148Z,25.70
2023-02-13T11:27:09.634Z,26.38
2023-02-13T11:29:38.385Z,25.02
2023-02-13T11:31:42.206Z,25.77
2023-02-13T11:33:45.102Z,24.65
2023-02-13T11:35:52.045Z,26.20
2023-02-13T11:38:24.882Z,25.83
2023-02-13T11:40:33.817Z,24.38
2023-02-13T11:42:43.690Z,25.52
2023-02-13T11:45:00.467Z,25.10
2023-02-13T11:47:05.261Z,23.40
2023-02-13T11:49:33.685Z,21.92
2023-02-13T11:51:45.395Z,23.88
2023-02-13T11:53:52.913Z,22.83
2023-02-13T11:56:05.457Z,21.30
2023-02-13T11:58:10.188Z,22.65
2023-02-13T12:00:41.544Z,20.80
2023-02-13T12:03:01.704Z,20.33
2023-02-13T12:05:15.193Z,22.58
2023-02-13T12:07:22.345Z,23.08
2023-02-13T12:09:44.069Z,21.90
2023-02-13T12:12:06.563Z,24.52
2023-02-13T12:14:16.635Z,23.23
2023-02-13T12:16:39.001Z,22.33
2023-02-13T12:18:46.733Z,22.60
2023-02-13T12:21:00.574Z,22.98
2023-02-13T12:23:14.603Z,23.17
2023-02-13T12:25:28.349Z,22.20
2023-02-13T12:27:37.124Z,23.75
2023-02-13T12:30:07.472Z,21.73
2023-02-13T12:32:17.556Z,22.45
2023-02-13T12:34:25.271Z,20.88
2023-02-13T12:36:46.736Z,21.80
2023-02-13T12:41:01.232Z,21.50
2023-02-13T12:43:20.583Z,21.75
2023-02-13T12:45:28.540Z,20.77
2023-02-13T12:47:31.640Z,19.65
2023-02-13T12:49:46.398Z,22.75
2023-02-13T12:51:56.388Z,21.25
2023-02-13T12:54:12.707Z,22.30
2023-02-13T12:56:29.206Z,21.73
2023-02-13T12:58:48.773Z,19.63
2023-02-13T13:00:53.095Z,20.10
2023-02-13T13:03:03.517Z,18.67
2023-02-13T13:05:14.060Z,19.40
2023-02-13T13:07:21.653Z,18.90
2023-02-13T13:09:48.995Z,20.13
2023-02-13T13:11:53.413Z,19.10
2023-02-13T13:16:10.170Z,18.02
2023-02-13T13:18:23.071Z,17.38
2023-02-13T13:20:24.960Z,19.13
2023-02-13T13:22:29.071Z,19.60
2023-02-13T13:24:54.858Z,19.27
2023-02-13T13:27:00.460Z,18.98
2023-02-13T13:29:03.886Z,19.65
2023-02-13T13:31:06.003Z,20.95
2023-02-13T13:33:16.558Z,20.40
2023-02-13T13:35:21.772Z,19.45
2023-02-13T13:37:23.197Z,19.52
2023-02-13T13:39:40.997Z,20.83
2023-02-13T13:41:55.130Z,21.38
2023-02-13T13:44:12.887Z,19.20
2023-02-13T13:46:26.144Z,19.65
2023-02-13T13:48:52.122Z,19.63
2023-02-13T13:50:54.040Z,18.48
2023-02-13T13:53:08.004Z,20.02
2023-02-13T13:55:29.437Z,18.88
2023-02-13T13:57:39.762Z,20.75
2023-02-13T13:59:51.886Z,20.45
2023-02-13T14:02:13.354Z,20.48
2023-02-13T14:04:33.545Z,19.90
2023-02-13T14:06:47.043Z,20.65
2023-02-13T14:08:59.129Z,22.50
2023-02-13T14:11:02.636Z,20.13
2023-02-13T14:13:04.183Z,21.17
2023-02-13T14:15:30.434Z,21.30
2023-02-13T14:17:46.225Z,22.58
2023-02-13T14:19:53.359Z,21.85
2023-02-13T14:21:56.816Z,22.75
2023-02-13T14:24:20.692Z,21.83
2023-02-13T14:26:33.979Z,22.00
2023-02-13T14:28:41.823Z,22.73
2023-02-13T14:30:44.949Z,22.10
2023-02-13T14:32:48.275Z,20.98
2023-02-13T14:34:56.925Z,20.42
2023-02-13T14:37:02.891Z,23.00
2023-02-13T14:39:07.678Z,21.03
2023-02-13T14:41:32.397Z,21.17
2023-02-13T14:43:54.716Z,20.55
2023-02-13T14:46:03.260Z,22.60
2023-02-13T14:48:13.188Z,21.77
2023-02-13T14:50:19.201Z,21.02
2023-02-13T14:52:29.397Z,20.45
2023-02-13T14:54:36.672Z,19.02
2023-02-13T14:56:39.040Z,21.90
2023-02-13T14:59:02.420Z,21.38
2023-02-13T15:01:18.792Z,22.65
2023-02-13T15:03:23.189Z,22.13
2023-02-13T15:05:28.166Z,22.33
2023-02-13T15:07:31.422Z,21.83
2023-02-13T15:09:40.227Z,21.30
2023-02-13T15:11:44.508Z,22.15
2023-02-13T15:13:46.069Z,23.50
2023-02-13T15:16:14.110Z,22.65
2023-02-13T15:18:24.225Z,20.77
2023-02-13T15:20:32.023Z,22.08
2023-02-13T15:22:35.586Z,24.48
2023-02-13T15:24:46.081Z,22.58
2023-02-13T15:26:55.212Z,23.50
2023-02-13T15:28:59.938Z,24.55
2023-02-13T15:31:20.963Z,24.35
2023-02-13T15:33:32.699Z,24.33
2023-02-13T15:35:37.687Z,24.70
2023-02-13T15:37:39.261Z,20.98
2023-02-13T15:39:46.718Z,21.88
2023-02-13T15:43:53.710Z,24.70
2023-02-13T15:45:56.500Z,23.30
2023-02-13T15:48:00.665Z,26.27
2023-02-13T15:50:02.264Z,23.50
2023-02-13T15:52:15.001Z,23.30
2023-02-13T15:54:29.912Z,25.10
2023-02-13T15:56:35.401Z,23.55
2023-02-13T15:58:39.697Z,23.90
2023-02-13T16:00:42.450Z,25.77
2023-02-13T16:02:46.301Z,27.42
2023-02-13T16:04:54.487Z,25.60
2023-02-13T16:06:56.377Z,26.38
2023-02-13T16:08:58.612Z,24.83
2023-02-13T16:11:18.312Z,26.88
2023-02-13T16:13:22.992Z,27.13
2023-02-13T16:15:29.411Z,28.02
2023-02-13T16:17:35.225Z,25.83
2023-02-13T16:19:39.626Z,24.60
2023-02-13T16:21:48.215Z,26.45
2023-02-13T16:23:56.146Z,28.05
2023-02-13T16:26:02.447Z,25.70
2023-02-13T16:28:10.189Z,26.67
2023-02-13T16:30:18.200Z,28.42
2023-02-13T16:32:31.203Z,27.50
2023-02-13T16:34:38.480Z,26.92
2023-02-13T16:36:40.378Z,27.27
2023-02-13T16:38:48.602Z,28.73
2023-02-13T16:40:50.184Z,28.23
2023-02-13T16:43:14.642Z,28.65
2023-02-13T16:45:23.161Z,29.52
2023-02-13T16:47:27.915Z,29.50
2023-02-13T16:49:31.778Z,29.17
2023-02-13T16:51:36.019Z,28.88
2023-02-13T16:53:40.720Z,30.10
2023-02-13T16:55:45.168Z,29.73
2023-02-13T16:57:47.358Z,29.98
2023-02-13T16:59:48.786Z,31.02
2023-02-13T17:02:12.720Z,30.88
2023-02-13T17:04:22.150Z,30.00
2023-02-13T17:06:24.594Z,31.60
2023-02-13T17:08:32.332Z,32.70
2023-02-13T17:10:41.999Z,30.92
2023-02-13T17:12:46.586Z,33.63
2023-02-13T17:14:48.162Z,31.10
2023-02-13T17:16:49.644Z,32.60
2023-02-13T17:18:57.134Z,32.88
2023-02-13T17:23:06.525Z,31.30
2023-02-13T17:25:25.093Z,32.22
2023-02-13T17:27:31.090Z,33.28
2023-02-13T17:29:37.207Z,31.13
2023-02-13T17:31:41.284Z,32.65
2023-02-13T17:33:47.804Z,31.75
2023-02-13T17:35:56.256Z,32.00
2023-02-13T17:37:59.392Z,32.90
2023-02-13T17:40:22.786Z,33.15
2023-02-13T17:42:26.853Z,32.22
2023-02-13T17:44:30.020Z,32.72
2023-02-13T17:46:33.365Z,31.63
2023-02-13T17:48:39.204Z,33.80
2023-02-13T17:50:41.933Z,33.63
2023-02-13T17:52:49.677Z,32.40
2023-02-13T17:54:52.971Z,34.90
2023-02-13T17:56:56.123Z,33.22
2023-02-13T17:58:57.786Z,35.08
2023-02-13T18:01:02.518Z,36.00
2023-02-13T18:03:04.542Z,36.35
2023-02-13T18:05:06.692Z,35.50
2023-02-13T18:07:12.175Z,33.25
2023-02-13T18:09:32.707Z,33.17
2023-02-13T18:11:34.448Z,35.20
2023-02-13T18:13:37.057Z,33.55
2023-02-13T18:15:40.076Z,34.95
2023-02-13T18:17:45.316Z,34.78
2023-02-13T18:19:50.851Z,34.20
2023-02-13T18:21:52.604Z,33.75
2023-02-13T18:23:54.189Z,34.97
2023-02-13T18:26:03.476Z,34.63
2023-02-13T18:28:05.141Z,34.88
2023-02-13T18:30:06.911Z,35.90
2023-02-13T18:32:10.369Z,35.33
2023-02-13T18:34:30.924Z,31.23
2023-02-13T18:36:32.450Z,36.30
2023-02-13T18:38:36.933Z,34.38
2023-02-13T18:40:39.427Z,37.42
2023-02-13T18:42:44.288Z,34.95
2023-02-13T18:44:48.709Z,35.40
2023-02-13T18:46:50.181Z,35.28
2023-02-13T18:48:54.241Z,36.40
2023-02-13T18:50:56.101Z,37.47
2023-02-13T18:52:57.778Z,35.25
2023-02-13T18:54:59.480Z,37.20
2023-02-13T18:57:03.689Z,37.10
2023-02-13T19:01:14.337Z,36.17
2023-02-13T19:03:21.785Z,35.90
2023-02-13T19:05:26.715Z,35.47
2023-02-13T19:07:28.253Z,38.78
2023-02-13T19:09:33.036Z,36.22
2023-02-13T19:11:35.801Z,37.67
2023-02-13T19:13:37.355Z,38.28
2023-02-13T19:17:45.808Z,36.90
2023-02-13T19:19:54.303Z,36.83
2023-02-13T19:21:55.972Z,39.00
2023-02-13T19:26:11.935Z,38.15
2023-02-13T19:28:18.917Z,37.92
2023-02-13T19:30:20.530Z,38.58
2023-02-13T19:34:45.038Z,38.35
2023-02-13T19:36:46.445Z,37.35
2023-02-13T19:38:48.489Z,39.88
2023-02-13T19:40:49.936Z,38.83
2023-02-13T19:43:10.666Z,36.38
2023-02-13T19:45:15.466Z,36.38
2023-02-13T19:47:17.148Z,37.33
2023-02-13T19:49:19.473Z,36.58
2023-02-13T19:51:25.326Z,37.97
2023-02-13T19:53:29.529Z,41.10
2023-02-13T19:55:30.910Z,34.55
2023-02-13T19:57:35.552Z,34.78
2023-02-13T19:59:39.826Z,35.63
2023-02-13T20:01:42.800Z,32.80
2023-02-13T20:03:47.154Z,35.85
2023-02-13T20:05:51.283Z,34.78
2023-02-13T20:10:15.448Z,37.10
2023-02-13T20:12:19.729Z,36.78
2023-02-13T20:14:24.158Z,36.03
2023-02-13T20:16:32.812Z,37.83
2023-02-13T20:18:35.408Z,35.65
2023-02-13T20:20:39.065Z,33.63
2023-02-13T20:22:40.577Z,36.33
2023-02-13T20:24:42.430Z,36.00
2023-02-13T20:26:47.085Z,33.75
2023-02-13T20:28:48.720Z,34.85
2023-02-13T20:30:55.727Z,34.08
2023-02-13T20:33:02.271Z,33.92
2023-02-13T20:35:08.878Z,32.03
2023-02-13T20:37:16.227Z,34.40
2023-02-13T20:39:23.170Z,31.52
2023-02-13T20:41:29.268Z,25.02
2023-02-13T20:43:33.147Z,29.75
2023-02-13T20:45:39.983Z,30.52
2023-02-13T20:47:48.495Z,28.20
2023-02-13T20:49:52.157Z,29.88
2023-02-13T20:51:56.068Z,35.00
2023-02-13T20:54:00.609Z,36.47
2023-02-13T20:56:07.317Z,35.40
2023-02-13T20:58:13.427Z,34.20
2023-02-13T21:00:17.004Z,35.85
2023-02-13T21:02:20.821Z,33.92
2023-02-13T21:04:25.004Z,31.63
2023-02-13T21:06:30.864Z,32.13
2023-02-13T21:08:35.261Z,33.45
2023-02-13T21:11:00.535Z,30.40
2023-02-13T21:13:02.270Z,31.17
2023-02-13T21:15:03.803Z,25.42
2023-02-13T21:17:09.598Z,22.85
2023-02-13T21:19:13.292Z,24.55
2023-02-13T21:21:14.842Z,24.30
2023-02-13T21:23:16.458Z,28.05
2023-02-13T21:25:18.715Z,28.77
2023-02-13T21:27:23.172Z,27.30
2023-02-13T21:29:27.610Z,28.45
2023-02-13T21:33:36.065Z,28.77
2023-02-13T21:35:40.076Z,36.33
2023-02-13T21:39:48.275Z,33.80
2023-02-13T21:41:49.720Z,35.28
2023-02-13T21:44:11.689Z,49.15
2023-02-13T21:46:13.198Z,45.17
2023-02-13T21:48:17.668Z,48.17
2023-02-13T21:50:22.280Z,46.80
2023-02-13T21:52:26.416Z,50.38
2023-02-13T21:54:27.956Z,59.42
2023-02-13T21:56:33.587Z,57.25
2023-02-13T21:58:39.478Z,58.45
2023-02-13T22:00:43.714Z,57.38
2023-02-13T22:04:52.293Z,58.20
2023-02-13T22:09:01.991Z,59.60
2023-02-13T22:11:03.936Z,59.13
2023-02-13T22:13:08.306Z,59.63
2023-02-13T22:15:12.747Z,60.03
2023-02-13T22:17:17.085Z,58.95
2023-02-13T22:19:18.618Z,60.30
2023-02-13T22:21:24.454Z,62.47
2023-02-13T22:23:28.962Z,60.33
2023-02-13T22:25:30.483Z,59.33
2023-02-13T22:27:32.116Z,59.95
2023-02-13T22:29:33.681Z,58.55
2023-02-13T22:34:04.010Z,60.33
2023-02-13T22:36:06.641Z,61.55
2023-02-13T22:38:08.677Z,58.72
2023-02-13T22:40:12.827Z,60.55
2023-02-13T22:42:14.306Z,58.15
2023-02-13T22:44:15.766Z,58.08
2023-02-13T22:46:24.548Z,56.65
2023-02-13T22:48:29.016Z,57.50
2023-02-13T22:50:33.951Z,58.00
2023-02-13T22:52:35.462Z,55.65
2023-02-13T22:54:37.585Z,59.33
2023-02-13T22:56:42.113Z,57.70
2023-02-13T22:58:46.221Z,55.35
2023-02-13T23:00:50.565Z,56.55
2023-02-13T23:02:54.631Z,59.95
2023-02-13T23:04:59.106Z,60.65
2023-02-13T23:07:00.587Z,59.03
2023-02-13T23:09:05.096Z,62.55
2023-02-13T23:11:32.592Z,61.10
2023-02-13T23:13:34.358Z,57.58
2023-02-13T23:15:36.518Z,57.88
2023-02-13T23:18:02.522Z,61.88
2023-02-13T23:20:04.238Z,63.17
2023-02-13T23:22:05.768Z,59.83
2023-02-13T23:24:07.417Z,58.20
2023-02-13T23:26:08.961Z,62.33
2023-02-13T23:28:13.388Z,57.97
2023-02-13T23:30:20.731Z,59.78
2023-02-13T23:32:28.881Z,54.13
2023-02-13T23:34:32.621Z,61.80
2023-02-13T23:36:43.807Z,61.05
2023-02-13T23:39:15.236Z,61.08
2023-02-13T23:41:30.593Z,58.70
2023-02-13T23:43:38.985Z,57.75
2023-02-13T23:45:51.780Z,61.35
2023-02-13T23:48:05.314Z,61.45
2023-02-13T23:50:16.064Z,56.92
2023-02-13T23:54:41.070Z,56.67
2023-02-13T23:56:52.814Z,56.17
2023-02-13T23:59:06.836Z,55.40
